Time;durP1;ratioP1;P1;durP2;ratioP2;P2;SDS_P1;SDS_P2;PMS_P1;PMS_P2;Temp;Humidity;BMP_temperature;BMP_pressure;BME280_temperature;BME280_humidity;BME280_pressure;Samples;Min_cycle;Max_cycle;Signal;HPM_P1;HPM_P2
2022/08/06 00:02:10;;;;;;;1.45;0.50;;;25.70;37.40;;;;;;5028598;28;20096;-53
2022/08/06 00:04:36;;;;;;;1.77;0.50;;;25.70;37.40;;;;;;5025465;28;20408;-54
2022/08/06 00:07:02;;;;;;;2.40;0.70;;;25.70;37.50;;;;;;5028353;28;20045;-54
2022/08/06 00:09:30;;;;;;;2.50;0.70;;;25.70;37.50;;;;;;5028275;28;20032;-52
2022/08/06 00:12:04;;;;;;;1.67;0.55;;;25.70;37.50;;;;;;5029435;28;20034;-50
2022/08/06 00:14:30;;;;;;;3.72;0.85;;;25.60;37.50;;;;;;5028353;28;20112;-52
2022/08/06 00:16:57;;;;;;;1.50;0.50;;;25.60;37.50;;;;;;5025981;28;20034;-54
2022/08/06 00:19:23;;;;;;;3.60;0.75;;;25.60;37.60;;;;;;5024982;28;20044;-56
2022/08/06 00:21:50;;;;;;;1.08;0.40;;;25.60;37.60;;;;;;5028992;28;20344;-52
2022/08/06 00:24:16;;;;;;;2.10;0.68;;;25.60;37.60;;;;;;5026389;28;20025;-55
2022/08/06 00:26:42;;;;;;;1.83;0.60;;;25.60;37.70;;;;;;5028469;28;20148;-55
2022/08/06 00:29:08;;;;;;;3.03;0.95;;;25.60;37.70;;;;;;5025166;28;20030;-54
2022/08/06 00:31:35;;;;;;;3.03;0.63;;;25.60;37.70;;;;;;5025148;28;20038;-53
2022/08/06 00:34:02;;;;;;;1.92;0.40;;;25.50;37.70;;;;;;5030683;28;20030;-55
2022/08/06 00:36:29;;;;;;;2.88;0.73;;;25.50;37.70;;;;;;5031373;28;20037;-52
2022/08/06 00:39:00;;;;;;;2.60;0.63;;;25.50;37.80;;;;;;5032606;28;20441;-54
2022/08/06 00:41:28;;;;;;;1.40;0.50;;;25.50;37.80;;;;;;5029321;28;20030;-53
2022/08/06 00:43:55;;;;;;;2.28;0.50;;;25.50;37.80;;;;;;5030756;28;20452;-55
2022/08/06 00:46:24;;;;;;;0.80;0.30;;;25.50;37.90;;;;;;5029776;28;20036;-50
2022/08/06 00:48:50;;;;;;;1.40;0.40;;;25.50;37.90;;;;;;5032292;28;20037;-52
2022/08/06 00:51:16;;;;;;;3.30;0.68;;;25.50;37.90;;;;;;5027789;28;20048;-54
2022/08/06 00:53:42;;;;;;;2.50;0.52;;;25.40;37.90;;;;;;5030771;28;20064;-53
2022/08/06 00:56:08;;;;;;;1.95;0.47;;;25.40;37.90;;;;;;5032004;28;20099;-55
2022/08/06 00:58:34;;;;;;;1.50;0.55;;;25.40;38.00;;;;;;5031342;28;20025;-53
2022/08/06 01:01:00;;;;;;;1.48;0.60;;;25.40;38.00;;;;;;5030958;28;20033;-55
2022/08/06 01:03:25;;;;;;;2.67;0.82;;;25.40;38.10;;;;;;5029982;28;20042;-53
2022/08/06 01:05:51;;;;;;;1.25;0.50;;;25.40;38.10;;;;;;5030723;28;20638;-56
2022/08/06 01:08:18;;;;;;;1.58;0.52;;;25.40;38.10;;;;;;5030664;28;20029;-56
2022/08/06 01:10:44;;;;;;;2.10;0.50;;;25.40;38.20;;;;;;5030616;28;20045;-53
2022/08/06 01:13:10;;;;;;;1.92;0.60;;;25.40;38.20;;;;;;5030470;28;20037;-52
2022/08/06 01:15:39;;;;;;;1.77;0.38;;;25.30;38.20;;;;;;5030288;28;20041;-52
2022/08/06 01:18:19;;;;;;;3.42;0.40;;;25.30;38.30;;;;;;5029099;28;20030;-54
2022/08/06 01:21:03;;;;;;;1.00;0.50;;;25.30;38.30;;;;;;5030505;28;20029;-52
2022/08/06 01:23:52;;;;;;;2.25;0.57;;;25.30;38.40;;;;;;5020657;28;20106;-52
2022/08/06 01:26:20;;;;;;;2.05;0.70;;;25.30;38.40;;;;;;5023784;28;20032;-55
2022/08/06 01:28:55;;;;;;;4.38;0.55;;;25.30;38.50;;;;;;5029622;28;20384;-56
2022/08/06 01:31:32;;;;;;;1.90;0.70;;;25.30;38.50;;;;;;5030547;28;20040;-54
2022/08/06 01:34:03;;;;;;;1.95;0.40;;;25.30;38.60;;;;;;5030132;28;20391;-50
2022/08/06 01:36:45;;;;;;;1.30;0.55;;;25.30;38.60;;;;;;5028071;28;20033;-50
2022/08/06 01:39:17;;;;;;;1.90;0.50;;;25.30;38.60;;;;;;5030709;28;20084;-51
2022/08/06 01:41:47;;;;;;;1.40;0.45;;;25.20;38.60;;;;;;5028813;28;20376;-51
2022/08/06 01:44:19;;;;;;;2.30;0.60;;;25.20;38.70;;;;;;5027985;28;20033;-51
2022/08/06 01:46:49;;;;;;;2.00;0.60;;;25.20;38.70;;;;;;5029240;28;20108;-53
2022/08/06 01:49:25;;;;;;;1.30;0.52;;;25.20;39.30;;;;;;5028091;28;20030;-51
2022/08/06 01:51:53;;;;;;;2.20;0.75;;;25.20;38.70;;;;;;5029789;28;20021;-54
2022/08/06 01:54:21;;;;;;;2.15;0.60;;;25.20;38.70;;;;;;5030142;28;20115;-53
2022/08/06 01:56:52;;;;;;;2.35;0.65;;;25.20;38.80;;;;;;5030256;28;20376;-52
2022/08/06 01:59:22;;;;;;;1.75;0.40;;;25.20;38.80;;;;;;5030213;28;20030;-55
2022/08/06 02:01:53;;;;;;;2.30;0.30;;;25.10;38.80;;;;;;5028911;28;20033;-54
2022/08/06 02:04:23;;;;;;;2.72;0.57;;;25.10;38.80;;;;;;5029046;28;20033;-53
2022/08/06 02:06:51;;;;;;;1.58;0.60;;;25.10;38.80;;;;;;5027774;28;20087;-55
2022/08/06 02:09:20;;;;;;;1.48;0.50;;;25.10;38.80;;;;;;5029316;28;20110;-49
2022/08/06 02:12:04;;;;;;;0.75;0.40;;;25.10;38.90;;;;;;5025464;28;20351;-54
2022/08/06 02:14:33;;;;;;;0.65;0.30;;;25.10;38.90;;;;;;5031077;28;20128;-50
2022/08/06 02:17:01;;;;;;;3.20;0.60;;;25.10;38.90;;;;;;5030669;28;20048;-52
2022/08/06 02:19:31;;;;;;;2.53;0.75;;;25.10;38.90;;;;;;5026949;28;20472;-52
2022/08/06 02:21:59;;;;;;;2.30;0.50;;;25.00;38.90;;;;;;5029530;28;20107;-53
2022/08/06 02:24:28;;;;;;;1.77;0.60;;;25.10;38.90;;;;;;5028789;28;20437;-52
2022/08/06 02:26:58;;;;;;;2.20;0.50;;;25.00;38.90;;;;;;5028144;28;20029;-51
2022/08/06 02:29:26;;;;;;;1.92;0.52;;;25.00;38.90;;;;;;5029380;28;20034;-52
2022/08/06 02:31:51;;;;;;;4.15;0.47;;;25.00;39.50;;;;;;5029724;28;20021;-51
2022/08/06 02:34:20;;;;;;;3.10;0.57;;;25.00;38.90;;;;;;5029215;28;20025;-52
2022/08/06 02:37:02;;;;;;;1.98;0.50;;;25.00;38.90;;;;;;5029835;28;20356;-54
2022/08/06 02:39:35;;;;;;;2.10;0.68;;;25.00;38.90;;;;;;5029190;28;20025;-52
2022/08/06 02:42:19;;;;;;;1.40;0.73;;;25.00;39.00;;;;;;5029855;28;20029;-53
2022/08/06 02:44:48;;;;;;;2.65;0.60;;;25.00;39.00;;;;;;5028801;28;20447;-52
2022/08/06 02:47:21;;;;;;;2.80;0.60;;;25.00;39.00;;;;;;5029805;28;20105;-52
2022/08/06 02:49:52;;;;;;;2.60;0.57;;;24.90;39.00;;;;;;5025892;28;20048;-57
2022/08/06 02:52:28;;;;;;;1.58;0.50;;;24.90;39.00;;;;;;5026817;28;20109;-50
2022/08/06 02:55:00;;;;;;;2.42;0.73;;;24.90;39.00;;;;;;5026780;28;20037;-51
2022/08/06 02:57:37;;;;;;;2.55;0.73;;;24.90;39.00;;;;;;5029903;28;20030;-49
2022/08/06 03:00:06;;;;;;;1.50;0.57;;;24.90;39.00;;;;;;5028573;28;20120;-54
2022/08/06 03:02:36;;;;;;;1.60;0.50;;;24.80;39.00;;;;;;5027796;28;20029;-54
2022/08/06 03:05:05;;;;;;;1.05;0.40;;;24.80;39.00;;;;;;5028399;28;20044;-51
2022/08/06 03:07:33;;;;;;;1.38;0.55;;;24.80;39.00;;;;;;5029348;28;20032;-53
2022/08/06 03:10:01;;;;;;;1.75;0.47;;;24.80;39.10;;;;;;5028207;28;20484;-51
2022/08/06 03:12:28;;;;;;;3.03;0.70;;;24.80;39.10;;;;;;5028819;28;20021;-53
2022/08/06 03:14:54;;;;;;;2.05;0.68;;;24.80;39.20;;;;;;5028068;28;20037;-52
2022/08/06 03:17:22;;;;;;;2.00;0.47;;;24.80;39.10;;;;;;5026329;28;20033;-49
2022/08/06 03:19:50;;;;;;;1.63;0.60;;;24.80;39.20;;;;;;5027993;28;20057;-51
2022/08/06 03:22:18;;;;;;;1.10;0.40;;;24.80;39.20;;;;;;5029582;28;20357;-52
2022/08/06 03:24:45;;;;;;;1.65;0.43;;;24.80;39.20;;;;;;5027027;28;20501;-54
2022/08/06 03:27:14;;;;;;;2.83;0.50;;;24.70;39.20;;;;;;5030606;28;20132;-53
2022/08/06 03:29:42;;;;;;;2.90;0.70;;;24.80;39.20;;;;;;5027540;28;20377;-54
2022/08/06 03:32:08;;;;;;;1.35;0.45;;;24.80;39.30;;;;;;5024833;28;20464;-52
2022/08/06 03:34:35;;;;;;;2.97;0.57;;;24.70;39.20;;;;;;5028364;28;20017;-50
2022/08/06 03:37:03;;;;;;;2.65;0.90;;;24.70;39.20;;;;;;5029542;28;20417;-52
2022/08/06 03:39:31;;;;;;;1.52;0.57;;;24.70;39.30;;;;;;5026425;28;20030;-51
2022/08/06 03:41:58;;;;;;;1.00;0.50;;;24.70;39.30;;;;;;5031505;28;20332;-53
2022/08/06 03:44:24;;;;;;;1.77;0.60;;;24.70;39.30;;;;;;5034092;28;20041;-55
2022/08/06 03:47:18;;;;;;;3.67;0.75;;;24.70;39.30;;;;;;5032933;28;20033;-54
2022/08/06 03:50:07;;;;;;;3.25;0.70;;;24.70;39.30;;;;;;5032945;28;20110;-55
2022/08/06 03:52:39;;;;;;;3.17;0.60;;;24.60;39.30;;;;;;5034039;28;20037;-53
2022/08/06 03:55:07;;;;;;;1.98;0.60;;;24.60;39.30;;;;;;5033682;28;20056;-51
2022/08/06 03:57:38;;;;;;;2.05;0.52;;;24.60;39.30;;;;;;5034437;28;20037;-53
2022/08/06 04:00:07;;;;;;;2.22;0.80;;;24.60;39.30;;;;;;5032994;28;20037;-51
2022/08/06 04:02:53;;;;;;;2.72;0.57;;;24.60;39.40;;;;;;5032102;28;20083;-55
2022/08/06 04:05:27;;;;;;;1.20;0.50;;;24.60;39.40;;;;;;5037146;28;20036;-53
2022/08/06 04:08:06;;;;;;;2.70;0.60;;;24.60;39.40;;;;;;5038181;28;20034;-54
2022/08/06 04:10:41;;;;;;;2.08;1.05;;;24.60;39.40;;;;;;5038095;28;20286;-54
2022/08/06 04:13:09;;;;;;;3.03;0.65;;;24.50;39.40;;;;;;5038048;28;20033;-53
2022/08/06 04:15:37;;;;;;;1.70;0.57;;;24.50;39.60;;;;;;5032418;28;20091;-53
2022/08/06 04:18:07;;;;;;;1.00;0.50;;;24.50;39.40;;;;;;5038489;28;20040;-54
2022/08/06 04:20:34;;;;;;;1.20;0.57;;;24.50;39.40;;;;;;5037979;28;20041;-52
2022/08/06 04:23:00;;;;;;;1.48;0.50;;;24.50;39.50;;;;;;5038111;28;20033;-55
2022/08/06 04:25:30;;;;;;;1.88;0.65;;;24.50;39.50;;;;;;5037643;28;20452;-50
2022/08/06 04:27:57;;;;;;;2.08;0.60;;;24.40;39.50;;;;;;5036248;28;20039;-49
2022/08/06 04:30:28;;;;;;;1.88;0.70;;;24.40;39.50;;;;;;5037704;28;20084;-55
2022/08/06 04:32:54;;;;;;;1.15;0.45;;;24.40;39.50;;;;;;5037807;28;20040;-51
2022/08/06 04:35:21;;;;;;;3.63;0.60;;;24.40;39.50;;;;;;5036039;28;20034;-53
2022/08/06 04:37:48;;;;;;;1.67;0.50;;;24.40;39.60;;;;;;5037377;28;20083;-53
2022/08/06 04:40:15;;;;;;;4.18;0.90;;;24.40;39.60;;;;;;5034087;28;20031;-53
2022/08/06 04:42:41;;;;;;;1.48;0.63;;;24.40;39.60;;;;;;5030237;28;20056;-52
2022/08/06 04:45:08;;;;;;;1.02;0.50;;;24.30;39.60;;;;;;5035910;28;20429;-52
2022/08/06 04:47:35;;;;;;;3.45;0.70;;;24.40;39.60;;;;;;5037604;28;20112;-54
2022/08/06 04:50:01;;;;;;;1.00;0.40;;;24.30;39.60;;;;;;5037703;28;20032;-55
2022/08/06 04:52:29;;;;;;;1.27;0.32;;;24.30;39.60;;;;;;5037438;28;20056;-54
2022/08/06 04:54:55;;;;;;;1.52;0.50;;;24.30;39.70;;;;;;5037341;28;20449;-52
2022/08/06 04:57:21;;;;;;;1.70;0.70;;;24.30;39.70;;;;;;5036039;28;20444;-55
2022/08/06 04:59:47;;;;;;;2.10;0.60;;;24.30;39.70;;;;;;5037239;28;20041;-54
2022/08/06 05:02:12;;;;;;;1.50;0.47;;;24.30;39.80;;;;;;5037047;28;20053;-53
2022/08/06 05:04:39;;;;;;;1.30;0.50;;;24.30;39.80;;;;;;5035838;28;20417;-55
2022/08/06 05:07:12;;;;;;;1.42;0.55;;;24.30;39.90;;;;;;5037077;28;20102;-53
2022/08/06 05:09:38;;;;;;;2.05;0.55;;;24.30;39.90;;;;;;5035341;28;20037;-55
2022/08/06 05:12:10;;;;;;;2.10;0.70;;;24.30;39.90;;;;;;5035838;28;20411;-51
2022/08/06 05:14:42;;;;;;;1.60;0.60;;;24.30;39.90;;;;;;5019498;28;20334;-51
2022/08/06 05:17:11;;;;;;;3.28;0.80;;;24.30;40.00;;;;;;5036262;28;20026;-50
2022/08/06 05:20:16;;;;;;;1.17;0.57;;;24.20;39.90;;;;;;5037244;28;20045;-55
2022/08/06 05:22:46;;;;;;;1.92;0.63;;;24.30;40.00;;;;;;5037327;28;20348;-52
2022/08/06 05:25:12;;;;;;;1.58;0.60;;;24.30;40.10;;;;;;5035008;28;20116;-53
2022/08/06 05:27:40;;;;;;;2.20;0.65;;;24.20;40.10;;;;;;5036772;28;20399;-52
2022/08/06 05:30:07;;;;;;;1.52;0.40;;;24.20;40.10;;;;;;5034194;28;20033;-53
2022/08/06 05:32:44;;;;;;;1.75;0.50;;;24.20;40.10;;;;;;5036869;28;20037;-57
2022/08/06 05:35:10;;;;;;;1.27;0.50;;;24.20;40.10;;;;;;5036742;28;20399;-52
2022/08/06 05:37:36;;;;;;;1.88;0.70;;;24.20;40.10;;;;;;5036019;28;20175;-53
2022/08/06 05:40:01;;;;;;;1.48;0.47;;;24.20;40.20;;;;;;5036390;28;20437;-51
2022/08/06 05:42:27;;;;;;;1.85;0.50;;;24.20;40.20;;;;;;5036444;28;20033;-53
2022/08/06 05:44:53;;;;;;;1.48;0.50;;;24.20;40.20;;;;;;5036940;28;20030;-49
2022/08/06 05:47:23;;;;;;;3.20;0.73;;;24.20;40.20;;;;;;5036945;28;20095;-50
2022/08/06 05:49:58;;;;;;;2.55;0.80;;;24.20;40.20;;;;;;5035288;28;20029;-53
2022/08/06 05:52:37;;;;;;;1.20;0.60;;;24.20;40.20;;;;;;5032640;28;20033;-55
2022/08/06 05:55:08;;;;;;;2.33;0.65;;;24.20;40.30;;;;;;5036176;28;20399;-53
2022/08/06 05:57:48;;;;;;;1.38;0.60;;;24.20;40.30;;;;;;5037071;28;20040;-54
2022/08/06 06:00:18;;;;;;;1.65;0.50;;;24.20;40.30;;;;;;5036440;28;20033;-53
2022/08/06 06:02:46;;;;;;;4.57;0.82;;;24.20;40.30;;;;;;5036330;28;20041;-53
2022/08/06 06:05:13;;;;;;;1.02;0.52;;;24.20;40.40;;;;;;5036363;28;20440;-53
2022/08/06 06:07:39;;;;;;;1.17;0.50;;;24.20;40.40;;;;;;5034899;28;20071;-52
2022/08/06 06:10:07;;;;;;;2.15;0.60;;;24.20;40.40;;;;;;5034607;28;20036;-55
2022/08/06 06:12:34;;;;;;;2.38;0.75;;;24.20;40.40;;;;;;5033878;28;20116;-50
2022/08/06 06:15:05;;;;;;;1.23;0.45;;;24.20;40.50;;;;;;5034359;28;20408;-51
2022/08/06 06:17:43;;;;;;;4.78;0.85;;;24.20;40.60;;;;;;5035560;28;20526;-50
2022/08/06 06:20:20;;;;;;;1.52;0.70;;;24.20;41.20;;;;;;5034976;28;20021;-53
2022/08/06 06:23:17;;;;;;;1.35;0.50;;;24.20;40.60;;;;;;5035756;28;20033;-55
2022/08/06 06:26:01;;;;;;;1.63;0.50;;;24.20;40.70;;;;;;5031701;28;20056;-50
2022/08/06 06:28:37;;;;;;;1.63;0.50;;;24.20;40.70;;;;;;5035604;28;20049;-55
2022/08/06 06:31:44;;;;;;;2.08;0.60;;;24.20;40.80;;;;;;5033890;28;20060;-52
2022/08/06 06:34:19;;;;;;;1.17;0.57;;;24.20;40.90;;;;;;5019990;28;20105;-54
2022/08/06 06:37:10;;;;;;;0.95;0.50;;;24.20;41.00;;;;;;5032861;28;20049;-52
2022/08/06 06:39:44;;;;;;;1.23;0.50;;;24.20;41.00;;;;;;5037646;28;20022;-54
2022/08/06 06:42:17;;;;;;;0.93;0.60;;;24.30;41.00;;;;;;5034860;28;20128;-54
2022/08/06 06:44:58;;;;;;;0.70;0.32;;;24.30;41.00;;;;;;5016771;28;20049;-53
2022/08/06 06:47:33;;;;;;;1.20;0.40;;;24.30;41.10;;;;;;5032581;28;20057;-52
2022/08/06 06:50:13;;;;;;;1.67;0.50;;;24.30;41.10;;;;;;5034526;28;20029;-52
2022/08/06 06:52:41;;;;;;;0.90;0.50;;;24.30;41.10;;;;;;5032963;28;20029;-55
2022/08/06 06:55:26;;;;;;;1.17;0.43;;;24.30;41.10;;;;;;5035276;28;20033;-49
2022/08/06 06:58:00;;;;;;;0.60;0.32;;;24.30;41.10;;;;;;5034711;28;20021;-52
2022/08/06 07:00:27;;;;;;;1.23;0.40;;;24.40;41.10;;;;;;5032344;28;20041;-51
2022/08/06 07:02:55;;;;;;;1.15;0.50;;;24.40;41.10;;;;;;5035338;28;20069;-53
2022/08/06 07:05:22;;;;;;;0.80;0.30;;;24.40;41.10;;;;;;5032224;28;20108;-53
2022/08/06 07:07:51;;;;;;;2.17;0.30;;;24.40;41.10;;;;;;5031100;28;20437;-54
2022/08/06 07:10:18;;;;;;;1.35;0.45;;;24.40;41.00;;;;;;5034375;28;20032;-51
2022/08/06 07:12:45;;;;;;;0.80;0.30;;;24.40;41.00;;;;;;5035126;28;20033;-54
2022/08/06 07:15:13;;;;;;;0.85;0.32;;;24.50;41.00;;;;;;5034969;28;20026;-53
2022/08/06 07:17:40;;;;;;;1.48;0.30;;;24.50;40.90;;;;;;5034759;28;20445;-52
2022/08/06 07:20:08;;;;;;;1.08;0.40;;;24.50;40.90;;;;;;5034891;28;20041;-56
2022/08/06 07:22:36;;;;;;;1.48;0.30;;;24.50;40.90;;;;;;5033343;28;20033;-54
2022/08/06 07:25:06;;;;;;;1.17;0.32;;;24.50;40.90;;;;;;5034590;28;20070;-52
2022/08/06 07:27:39;;;;;;;0.30;0.28;;;24.60;40.90;;;;;;5031119;28;20033;-56
2022/08/06 07:30:06;;;;;;;1.67;0.50;;;24.60;40.90;;;;;;5027914;28;20395;-55
2022/08/06 07:32:33;;;;;;;1.00;0.32;;;24.60;40.90;;;;;;5029676;28;20133;-53
2022/08/06 07:35:01;;;;;;;0.55;0.28;;;24.60;40.90;;;;;;5027096;28;20030;-56
2022/08/06 07:37:28;;;;;;;1.92;0.43;;;24.60;40.90;;;;;;5030334;28;20087;-51
2022/08/06 07:39:57;;;;;;;0.63;0.35;;;24.60;40.90;;;;;;5030808;28;20057;-50
2022/08/06 07:42:24;;;;;;;0.95;0.40;;;24.60;40.90;;;;;;5033993;28;20357;-56
2022/08/06 07:44:56;;;;;;;1.75;0.40;;;24.70;40.90;;;;;;5033013;28;20448;-55
2022/08/06 07:47:30;;;;;;;0.35;0.17;;;24.70;40.90;;;;;;5033400;28;20053;-52
2022/08/06 07:49:58;;;;;;;1.05;0.30;;;24.70;40.80;;;;;;5030996;28;20120;-53
2022/08/06 07:52:25;;;;;;;1.08;0.40;;;24.70;40.80;;;;;;5031572;28;20045;-57
2022/08/06 07:54:53;;;;;;;0.45;0.15;;;24.70;40.70;;;;;;5026618;28;20037;-53
2022/08/06 07:57:20;;;;;;;1.30;0.50;;;24.70;40.70;;;;;;5023188;28;20037;-54
2022/08/06 07:59:47;;;;;;;0.40;0.30;;;24.70;40.70;;;;;;5030751;28;20109;-50
2022/08/06 08:02:13;;;;;;;0.25;0.20;;;24.70;40.70;;;;;;5031004;28;20091;-53
2022/08/06 08:07:25;;;;;;;1.65;0.30;;;24.80;40.60;;;;;;5032404;28;20457;-52
2022/08/06 08:09:51;;;;;;;1.10;0.40;;;24.80;40.70;;;;;;5014272;28;20025;-54
2022/08/06 08:12:19;;;;;;;0.63;0.28;;;24.80;40.60;;;;;;5034644;28;20384;-56
2022/08/06 08:14:46;;;;;;;2.03;0.47;;;24.80;40.50;;;;;;5031406;28;20104;-51
2022/08/06 08:17:13;;;;;;;1.58;0.40;;;24.80;40.30;;;;;;5033031;28;20079;-51
2022/08/06 08:19:40;;;;;;;1.17;0.50;;;24.80;40.20;;;;;;5035834;28;20112;-54
2022/08/06 08:22:10;;;;;;;1.30;0.43;;;24.80;40.10;;;;;;5037549;28;20029;-54
2022/08/06 08:24:37;;;;;;;1.58;0.30;;;24.90;40.10;;;;;;5035622;28;20932;-53
2022/08/06 08:27:08;;;;;;;0.93;0.30;;;24.90;39.90;;;;;;5030638;28;20473;-52
2022/08/06 08:29:34;;;;;;;1.50;0.30;;;24.90;39.80;;;;;;5036709;28;20095;-54
2022/08/06 08:32:01;;;;;;;0.70;0.30;;;24.90;39.70;;;;;;5036864;28;20037;-54
2022/08/06 08:34:27;;;;;;;1.90;0.50;;;24.90;39.70;;;;;;5037080;28;20041;-54
2022/08/06 08:36:53;;;;;;;1.92;0.35;;;24.90;39.60;;;;;;5035946;28;20041;-57
2022/08/06 08:39:19;;;;;;;1.90;0.50;;;24.90;39.60;;;;;;5031967;28;20353;-55
2022/08/06 08:42:00;;;;;;;0.57;0.20;;;25.00;39.60;;;;;;5030109;28;20102;-51
2022/08/06 08:44:27;;;;;;;0.43;0.30;;;25.00;39.50;;;;;;5030402;28;20034;-53
2022/08/06 08:46:59;;;;;;;1.40;0.30;;;25.00;39.50;;;;;;5032405;28;20033;-54
2022/08/06 08:49:55;;;;;;;0.77;0.35;;;25.00;39.30;;;;;;5030145;28;20429;-53
2022/08/06 08:52:33;;;;;;;1.85;0.50;;;25.00;39.10;;;;;;5031321;28;20061;-53
2022/08/06 08:55:02;;;;;;;0.82;0.30;;;25.00;39.00;;;;;;5029475;28;20038;-56
2022/08/06 08:57:30;;;;;;;0.90;0.32;;;25.00;39.00;;;;;;5031364;28;20021;-52
2022/08/06 08:59:56;;;;;;;1.75;0.30;;;25.00;38.90;;;;;;5030352;28;20099;-52
2022/08/06 09:02:23;;;;;;;1.25;0.28;;;25.00;38.80;;;;;;5031105;28;20330;-50
2022/08/06 09:04:50;;;;;;;0.40;0.20;;;25.00;38.80;;;;;;5032581;28;20034;-53
2022/08/06 09:07:17;;;;;;;0.77;0.32;;;25.00;38.70;;;;;;5031514;28;20069;-52
2022/08/06 09:09:43;;;;;;;0.40;0.20;;;25.00;38.60;;;;;;5031353;28;20031;-54
2022/08/06 09:12:09;;;;;;;0.77;0.25;;;25.00;38.50;;;;;;5031791;28;20441;-56
2022/08/06 09:14:36;;;;;;;0.50;0.35;;;25.10;38.50;;;;;;5030956;28;20032;-56
2022/08/06 09:17:04;;;;;;;1.35;0.30;;;25.10;38.40;;;;;;5028606;28;20457;-56
2022/08/06 09:19:31;;;;;;;1.30;0.35;;;25.10;38.30;;;;;;5027100;28;20053;-53
2022/08/06 09:21:57;;;;;;;0.93;0.30;;;25.10;38.30;;;;;;5031260;28;20033;-53
2022/08/06 09:24:25;;;;;;;0.68;0.30;;;25.10;38.20;;;;;;5032364;28;20029;-51
2022/08/06 09:27:08;;;;;;;0.47;0.20;;;25.10;38.20;;;;;;5031438;28;20096;-52
2022/08/06 09:29:34;;;;;;;1.08;0.30;;;25.10;38.10;;;;;;5029554;28;20449;-54
2022/08/06 09:32:03;;;;;;;1.00;0.38;;;25.10;38.10;;;;;;5030483;28;20425;-51
2022/08/06 09:34:37;;;;;;;0.93;0.30;;;25.10;38.10;;;;;;5022068;28;20033;-53
2022/08/06 09:37:03;;;;;;;0.82;0.40;;;25.10;37.90;;;;;;5029851;28;20152;-53
2022/08/06 09:39:31;;;;;;;0.60;0.30;;;25.10;37.90;;;;;;5024130;28;20112;-51
2022/08/06 09:41:57;;;;;;;1.20;0.22;;;25.10;37.70;;;;;;5030486;28;20444;-54
2022/08/06 09:44:23;;;;;;;0.70;0.35;;;25.10;37.60;;;;;;5030358;28;20041;-54
2022/08/06 09:46:49;;;;;;;0.30;0.20;;;25.10;37.50;;;;;;5031352;28;20028;-50
2022/08/06 09:49:18;;;;;;;0.90;0.22;;;25.20;37.50;;;;;;5031078;28;20030;-54
2022/08/06 09:51:44;;;;;;;1.15;0.30;;;25.20;37.40;;;;;;5000858;28;20033;-58
2022/08/06 09:54:18;;;;;;;0.70;0.30;;;25.20;37.30;;;;;;5030522;28;20076;-53
2022/08/06 09:56:45;;;;;;;0.47;0.22;;;25.20;37.20;;;;;;5029875;28;20041;-57
2022/08/06 09:59:12;;;;;;;1.50;0.50;;;25.20;37.20;;;;;;5029884;28;20036;-54
2022/08/06 10:01:45;;;;;;;0.40;0.30;;;25.20;37.10;;;;;;5026086;28;20048;-54
2022/08/06 10:04:25;;;;;;;1.00;0.40;;;25.20;37.00;;;;;;5027254;28;20030;-56
2022/08/06 10:07:00;;;;;;;2.40;0.50;;;25.20;37.00;;;;;;5011455;28;20044;-50
2022/08/06 10:09:27;;;;;;;0.85;0.28;;;25.20;36.90;;;;;;5030054;28;20029;-54
2022/08/06 10:11:53;;;;;;;0.85;0.40;;;25.20;36.80;;;;;;5017725;28;20052;-53
2022/08/06 10:14:23;;;;;;;0.68;0.30;;;25.30;36.70;;;;;;5028592;28;20072;-54
2022/08/06 10:17:09;;;;;;;0.80;0.20;;;25.30;36.50;;;;;;5029688;28;20041;-55
2022/08/06 10:19:36;;;;;;;0.20;0.10;;;25.30;36.30;;;;;;5028611;28;20116;-55
2022/08/06 10:22:18;;;;;;;0.35;0.20;;;25.30;36.30;;;;;;5025932;28;20071;-60
2022/08/06 10:24:46;;;;;;;4.13;0.50;;;25.30;36.20;;;;;;5025327;28;20038;-59
2022/08/06 10:27:20;;;;;;;1.13;0.40;;;25.30;36.40;;;;;;5031523;28;20029;-60
2022/08/06 10:29:53;;;;;;;1.33;0.50;;;25.30;36.70;;;;;;5029637;28;20057;-57
2022/08/06 10:32:36;;;;;;;1.45;0.60;;;25.40;37.00;;;;;;5029408;28;20033;-59
2022/08/06 10:35:05;;;;;;;1.55;0.65;;;25.40;37.10;;;;;;5025213;28;20469;-56
2022/08/06 10:37:37;;;;;;;1.10;0.50;;;25.50;37.20;;;;;;5029053;28;20061;-59
2022/08/06 10:40:06;;;;;;;2.88;0.43;;;25.60;37.30;;;;;;5029582;28;20112;-60
2022/08/06 10:42:34;;;;;;;2.30;0.70;;;25.70;37.40;;;;;;5027335;28;20044;-61
2022/08/06 10:45:02;;;;;;;1.85;0.60;;;25.80;37.50;;;;;;5025810;28;20029;-56
2022/08/06 10:47:30;;;;;;;1.05;0.32;;;25.90;37.40;;;;;;5027854;28;20037;-59
2022/08/06 10:49:57;;;;;;;2.28;0.50;;;26.00;37.40;;;;;;5026892;28;20075;-58
2022/08/06 10:52:23;;;;;;;1.77;0.50;;;26.10;37.40;;;;;;5029278;28;20088;-59
2022/08/06 10:54:51;;;;;;;2.63;0.50;;;26.20;37.40;;;;;;5027893;28;20045;-57
2022/08/06 10:57:17;;;;;;;1.08;0.50;;;26.30;37.30;;;;;;5027569;28;20017;-55
2022/08/06 10:59:50;;;;;;;4.07;0.50;;;26.40;37.30;;;;;;5028325;28;20407;-57
2022/08/06 11:02:40;;;;;;;0.77;0.30;;;26.50;37.30;;;;;;5029749;28;20029;-60
2022/08/06 11:05:17;;;;;;;2.63;0.60;;;26.60;37.30;;;;;;5026950;28;20167;-58
2022/08/06 11:08:20;;;;;;;4.07;0.82;;;26.60;37.20;;;;;;5026782;28;20045;-57
2022/08/06 11:11:08;;;;;;;1.15;0.30;;;26.70;37.20;;;;;;5026742;28;20021;-56
2022/08/06 11:14:00;;;;;;;1.15;0.40;;;26.80;37.20;;;;;;5024864;28;20429;-55
2022/08/06 11:16:28;;;;;;;0.80;0.40;;;26.80;37.10;;;;;;5025177;28;20033;-56
2022/08/06 11:18:59;;;;;;;0.73;0.35;;;26.90;37.10;;;;;;5028102;28;20040;-60
2022/08/06 11:21:36;;;;;;;3.72;0.45;;;26.90;36.90;;;;;;5027918;28;20029;-54
2022/08/06 11:24:03;;;;;;;0.80;0.30;;;27.00;36.80;;;;;;5026141;28;20044;-54
2022/08/06 11:26:35;;;;;;;0.52;0.30;;;27.00;36.70;;;;;;5026708;28;20107;-55
2022/08/06 11:29:02;;;;;;;1.00;0.50;;;27.10;36.50;;;;;;5026921;28;20037;-56
2022/08/06 11:31:41;;;;;;;0.73;0.30;;;27.10;36.40;;;;;;5028033;28;20029;-58
2022/08/06 11:34:10;;;;;;;0.82;0.30;;;27.10;36.20;;;;;;5025500;28;20063;-59
2022/08/06 11:36:49;;;;;;;0.80;0.30;;;27.10;36.10;;;;;;5024762;28;20037;-57
2022/08/06 11:39:19;;;;;;;0.88;0.40;;;27.10;35.80;;;;;;5024775;28;20025;-60
2022/08/06 11:41:52;;;;;;;1.30;0.40;;;27.20;35.80;;;;;;5026680;28;20117;-58
2022/08/06 11:44:28;;;;;;;1.00;0.30;;;27.20;35.70;;;;;;5026395;28;20029;-58
2022/08/06 11:47:12;;;;;;;1.30;0.20;;;27.20;35.60;;;;;;5027191;28;20026;-56
2022/08/06 11:49:41;;;;;;;1.15;0.30;;;27.20;35.40;;;;;;5024319;28;20080;-57
2022/08/06 11:52:08;;;;;;;2.00;0.30;;;27.20;35.30;;;;;;5022452;28;20037;-58
2022/08/06 11:54:55;;;;;;;0.77;0.40;;;27.20;35.20;;;;;;5025075;28;20072;-54
2022/08/06 11:57:23;;;;;;;1.10;0.30;;;27.20;35.20;;;;;;5023831;28;20045;-59
2022/08/06 11:59:54;;;;;;;0.28;0.20;;;27.30;35.20;;;;;;5026831;28;20025;-58
2022/08/06 12:02:42;;;;;;;0.57;0.20;;;27.20;35.00;;;;;;5028157;28;20022;-56
2022/08/06 12:05:27;;;;;;;7.40;0.98;;;27.20;35.00;;;;;;5022242;28;20083;-59
2022/08/06 12:08:21;;;;;;;1.73;0.50;;;27.30;35.10;;;;;;5027072;28;20034;-59
2022/08/06 12:11:21;;;;;;;2.85;0.40;;;27.30;35.20;;;;;;5026014;28;20029;-59
2022/08/06 12:13:47;;;;;;;1.48;0.40;;;27.30;35.50;;;;;;5024811;28;20038;-57
2022/08/06 12:16:33;;;;;;;0.70;0.30;;;27.30;35.80;;;;;;5027079;28;20464;-58
2022/08/06 12:19:00;;;;;;;1.05;0.40;;;27.30;35.90;;;;;;5024397;28;20026;-58
2022/08/06 12:21:27;;;;;;;2.35;0.40;;;27.30;35.80;;;;;;5027760;28;20026;-57
2022/08/06 12:23:54;;;;;;;1.88;0.60;;;27.40;35.90;;;;;;5022917;28;20052;-57
2022/08/06 12:26:21;;;;;;;0.60;0.30;;;27.40;35.90;;;;;;5029881;28;20025;-59
2022/08/06 12:28:48;;;;;;;0.95;0.47;;;27.40;35.80;;;;;;5028871;28;20037;-64
2022/08/06 12:31:28;;;;;;;1.35;0.40;;;27.40;35.70;;;;;;5011564;28;20030;-62
2022/08/06 12:33:54;;;;;;;1.58;0.38;;;27.40;35.60;;;;;;5027124;28;20076;-58
2022/08/06 12:36:19;;;;;;;1.58;0.60;;;27.50;35.60;;;;;;5011541;28;20071;-55
2022/08/06 12:38:56;;;;;;;3.45;0.50;;;27.50;36.30;;;;;;5028146;28;20027;-58
2022/08/06 12:41:33;;;;;;;1.10;0.50;;;27.50;35.50;;;;;;5029719;28;20163;-60
2022/08/06 12:43:59;;;;;;;1.55;0.52;;;27.60;35.70;;;;;;5028846;28;20021;-60
2022/08/06 12:46:25;;;;;;;4.18;0.52;;;27.60;35.70;;;;;;5027492;28;21428;-59
2022/08/06 12:48:51;;;;;;;2.50;0.40;;;27.60;35.60;;;;;;5028533;28;20021;-57
2022/08/06 12:51:18;;;;;;;1.10;0.43;;;27.60;35.70;;;;;;5028027;28;20063;-57
2022/08/06 12:53:52;;;;;;;5.45;0.70;;;27.60;35.70;;;;;;5034479;28;20122;-57
2022/08/06 12:56:22;;;;;;;3.45;0.40;;;27.60;35.80;;;;;;5028026;28;20065;-58
2022/08/06 12:58:52;;;;;;;1.10;0.40;;;27.60;35.80;;;;;;5031250;28;20033;-60
2022/08/06 13:01:22;;;;;;;1.33;0.40;;;27.60;35.70;;;;;;5032722;28;20036;-61
2022/08/06 13:03:55;;;;;;;1.45;0.40;;;27.60;35.70;;;;;;5036784;28;20402;-58
2022/08/06 13:06:24;;;;;;;0.87;0.30;;;27.50;35.60;;;;;;5036246;28;20083;-59
2022/08/06 13:08:52;;;;;;;1.25;0.25;;;27.50;35.50;;;;;;5036374;28;20371;-59
2022/08/06 13:11:18;;;;;;;0.77;0.30;;;27.60;35.50;;;;;;5031397;28;20025;-61